Time;durP1;ratioP1;P1;durP2;ratioP2;P2;SDS_P1;SDS_P2;PMS_P1;PMS_P2;Temp;Humidity;BMP_temperature;BMP_pressure;BME280_temperature;BME280_humidity;BME280_pressure;Samples;Min_cycle;Max_cycle;Signal;HPM_P1;HPM_P2
2021/08/03 00:03:14;;;;;;;;;;;11.70;99.90;;;;;;8292883;28;19906;-65
2021/08/03 00:07:18;;;;;;;;;;;11.90;99.90;;;;;;8293582;28;19901;-65
2021/08/03 00:11:19;;;;;;;;;;;11.90;99.90;;;;;;8275388;28;19905;-65
2021/08/03 00:15:21;;;;;;;;;;;11.90;99.90;;;;;;8275336;28;19929;-65
2021/08/03 00:19:23;;;;;;;;;;;11.90;99.90;;;;;;8292816;28;19917;-65
2021/08/03 00:23:24;;;;;;;;;;;11.70;99.90;;;;;;8292203;28;20425;-65
2021/08/03 00:27:24;;;;;;;;;;;11.60;99.90;;;;;;8297134;28;19963;-65
2021/08/03 00:31:25;;;;;;;;;;;11.60;99.90;;;;;;8281390;28;19905;-65
2021/08/03 00:35:26;;;;;;;;;;;11.70;99.90;;;;;;8299051;28;19912;-65
2021/08/03 00:39:26;;;;;;;;;;;11.90;99.90;;;;;;8281110;28;19945;-66
2021/08/03 00:43:27;;;;;;;;;;;11.80;99.90;;;;;;8298268;28;19909;-65
2021/08/03 00:47:27;;;;;;;;;;;11.60;99.90;;;;;;8298724;28;19905;-65
2021/08/03 00:51:28;;;;;;;;;;;11.40;99.90;;;;;;8298156;28;19909;-65
2021/08/03 00:55:28;;;;;;;;;;;11.50;99.90;;;;;;8298127;28;19905;-65
2021/08/03 00:59:29;;;;;;;;;;;11.30;99.90;;;;;;8298033;28;19913;-65
2021/08/03 01:03:29;;;;;;;;;;;11.20;99.90;;;;;;8297522;28;19905;-65
2021/08/03 01:07:30;;;;;;;;;;;11.10;99.90;;;;;;8298056;28;19992;-65
2021/08/03 01:11:30;;;;;;;;;;;11.10;99.90;;;;;;8297776;28;19960;-65
2021/08/03 01:15:49;;;;;;;;;;;11.60;99.90;;;;;;8297659;28;19905;-65
2021/08/03 01:19:56;;;;;;;;;;;11.50;99.90;;;;;;8279995;28;19925;-66
2021/08/03 01:24:15;;;;;;;;;;;11.20;99.90;;;;;;8297033;28;19920;-65
2021/08/03 01:28:16;;;;;;;;;;;11.10;99.90;;;;;;8297196;28;19912;-65
2021/08/03 01:32:22;;;;;;;;;;;11.10;99.90;;;;;;8297243;28;19913;-65
2021/08/03 01:36:23;;;;;;;;;;;11.10;99.90;;;;;;8296645;28;20443;-65
2021/08/03 01:40:25;;;;;;;;;;;11.20;99.90;;;;;;8278868;28;19910;-65
2021/08/03 01:44:26;;;;;;;;;;;11.10;99.90;;;;;;8279175;28;19905;-65
2021/08/03 01:48:27;;;;;;;;;;;11.10;99.90;;;;;;8296904;28;20379;-65
2021/08/03 01:52:28;;;;;;;;;;;11.10;99.90;;;;;;8296421;28;19906;-65
2021/08/03 01:56:29;;;;;;;;;;;11.10;99.90;;;;;;8296767;28;19905;-65
2021/08/03 02:00:30;;;;;;;;;;;11.20;99.90;;;;;;8296425;28;19910;-65
2021/08/03 02:04:31;;;;;;;;;;;11.10;99.90;;;;;;8295665;28;19957;-65
2021/08/03 02:08:35;;;;;;;;;;;11.00;99.90;;;;;;8295901;28;19913;-65
2021/08/03 02:12:35;;;;;;;;;;;10.90;99.90;;;;;;8278046;28;19909;-65
2021/08/03 02:16:37;;;;;;;;;;;11.00;99.90;;;;;;8296076;28;19906;-65
2021/08/03 02:20:38;;;;;;;;;;;10.90;99.90;;;;;;8295363;28;19924;-65
2021/08/03 02:24:39;;;;;;;;;;;10.90;99.90;;;;;;8295202;28;19913;-65
2021/08/03 02:28:39;;;;;;;;;;;11.00;99.90;;;;;;8295217;28;19906;-65
2021/08/03 02:32:49;;;;;;;;;;;11.00;99.90;;;;;;8277497;28;19951;-65
2021/08/03 02:36:52;;;;;;;;;;;11.00;99.90;;;;;;8295157;28;19912;-65
2021/08/03 02:40:53;;;;;;;;;;;10.70;99.90;;;;;;8277182;28;19913;-65
2021/08/03 02:44:57;;;;;;;;;;;10.50;99.90;;;;;;8294746;28;19905;-65
2021/08/03 02:49:04;;;;;;;;;;;10.60;99.90;;;;;;8293945;28;19905;-65
2021/08/03 02:53:13;;;;;;;;;;;10.90;99.90;;;;;;8294273;28;19914;-65
2021/08/03 02:57:15;;;;;;;;;;;10.70;99.90;;;;;;8294484;28;20012;-65
2021/08/03 03:01:16;;;;;;;;;;;10.60;99.90;;;;;;8293791;28;19963;-65
2021/08/03 03:05:27;;;;;;;;;;;10.30;99.90;;;;;;8276743;28;19909;-65
2021/08/03 03:09:29;;;;;;;;;;;10.30;99.90;;;;;;8294331;28;20001;-65
2021/08/03 03:13:32;;;;;;;;;;;10.30;99.90;;;;;;8276175;28;19912;-65
2021/08/03 03:17:34;;;;;;;;;;;10.50;99.90;;;;;;8276488;28;20000;-65
2021/08/03 03:21:35;;;;;;;;;;;10.50;99.90;;;;;;8294140;28;19909;-65
2021/08/03 03:25:35;;;;;;;;;;;10.40;99.90;;;;;;8293687;28;19905;-65
2021/08/03 03:29:37;;;;;;;;;;;10.50;99.90;;;;;;8293823;28;19912;-65
2021/08/03 03:33:40;;;;;;;;;;;10.40;99.90;;;;;;8275856;28;19905;-65
2021/08/03 03:37:42;;;;;;;;;;;10.10;99.90;;;;;;8293928;28;20260;-65
2021/08/03 03:41:48;;;;;;;;;;;10.30;99.90;;;;;;8275947;28;19936;-65
2021/08/03 03:45:53;;;;;;;;;;;10.10;99.90;;;;;;8293368;28;19905;-65
2021/08/03 03:49:58;;;;;;;;;;;10.00;99.90;;;;;;8275397;28;19905;-65
2021/08/03 03:54:01;;;;;;;;;;;10.00;99.90;;;;;;8292842;28;20498;-65
2021/08/03 03:58:02;;;;;;;;;;;10.10;99.90;;;;;;8293132;28;20052;-66
2021/08/03 04:02:03;;;;;;;;;;;10.10;99.90;;;;;;8292257;28;19996;-65
2021/08/03 04:06:06;;;;;;;;;;;10.30;99.90;;;;;;8275331;28;19909;-65
2021/08/03 04:10:08;;;;;;;;;;;10.30;99.90;;;;;;8292632;28;20000;-65
2021/08/03 04:14:09;;;;;;;;;;;10.10;99.90;;;;;;8292545;28;20428;-65
2021/08/03 04:18:09;;;;;;;;;;;10.10;99.90;;;;;;8272000;28;19909;-65
2021/08/03 04:22:10;;;;;;;;;;;10.20;99.90;;;;;;8288689;28;19972;-65
2021/08/03 04:26:10;;;;;;;;;;;10.20;99.90;;;;;;8287808;28;19909;-65
2021/08/03 04:30:12;;;;;;;;;;;11.80;99.90;;;;;;8285684;28;20462;-65
2021/08/03 04:34:13;;;;;;;;;;;11.80;99.90;;;;;;8281613;28;20304;-65
2021/08/03 04:38:13;;;;;;;;;;;13.00;99.90;;;;;;8267779;28;20029;-65
2021/08/03 04:42:14;;;;;;;;;;;13.60;99.90;;;;;;8282474;28;19919;-65
2021/08/03 04:46:16;;;;;;;;;;;14.20;99.90;;;;;;8283865;28;19924;-65
2021/08/03 04:50:21;;;;;;;;;;;14.10;99.90;;;;;;8272827;28;19917;-65
2021/08/03 04:54:21;;;;;;;;;;;13.70;99.90;;;;;;8290373;28;19909;-65
2021/08/03 04:58:22;;;;;;;;;;;13.60;99.90;;;;;;8283932;28;20358;-65
2021/08/03 05:02:22;;;;;;;;;;;13.90;99.90;;;;;;8290704;28;20288;-65
2021/08/03 05:06:23;;;;;;;;;;;13.50;99.90;;;;;;8250115;28;19914;-65
2021/08/03 05:10:24;;;;;;;;;;;13.70;99.90;;;;;;8259359;28;19941;-65
2021/08/03 05:14:24;;;;;;;;;;;14.00;99.90;;;;;;8264952;28;19912;-65
2021/08/03 05:18:25;;;;;;;;;;;14.30;99.90;;;;;;8265018;28;20019;-65
2021/08/03 05:22:26;;;;;;;;;;;14.80;99.90;;;;;;8285081;28;20410;-65
2021/08/03 05:26:26;;;;;;;;;;;15.00;99.90;;;;;;8279800;28;19905;-66
2021/08/03 05:30:27;;;;;;;;;;;15.10;99.90;;;;;;8297200;28;20024;-65
2021/08/03 05:34:27;;;;;;;;;;;15.00;99.90;;;;;;8297062;28;19906;-65
2021/08/03 05:38:28;;;;;;;;;;;15.00;99.90;;;;;;8292018;28;19949;-66
2021/08/03 05:42:28;;;;;;;;;;;15.20;99.90;;;;;;8280100;28;20364;-65
2021/08/03 05:46:30;;;;;;;;;;;15.60;99.90;;;;;;8272150;28;19909;-65
2021/08/03 05:50:30;;;;;;;;;;;16.10;99.90;;;;;;8276611;28;19910;-65
2021/08/03 05:54:31;;;;;;;;;;;16.30;99.90;;;;;;8280770;28;19917;-65
2021/08/03 05:58:31;;;;;;;;;;;16.40;99.90;;;;;;8285387;28;19914;-74
2021/08/03 06:02:32;;;;;;;;;;;16.30;99.90;;;;;;8291448;28;19920;-74
2021/08/03 06:06:38;;;;;;;;;;;16.60;99.90;;;;;;8264810;28;19913;-75
2021/08/03 06:10:38;;;;;;;;;;;16.90;99.90;;;;;;8262186;28;19916;-74
2021/08/03 06:14:44;;;;;;;;;;;17.00;99.90;;;;;;8278771;28;19913;-75
2021/08/03 06:18:46;;;;;;;;;;;16.90;99.90;;;;;;8277503;28;20743;-74
2021/08/03 06:22:47;;;;;;;;;;;16.80;99.90;;;;;;8295782;28;19905;-74
2021/08/03 06:26:47;;;;;;;;;;;16.90;99.90;;;;;;8284706;28;19968;-74
2021/08/03 06:30:49;;;;;;;;;;;17.10;99.90;;;;;;8272926;28;19917;-75
2021/08/03 06:34:50;;;;;;;;;;;17.20;99.90;;;;;;8280119;28;19910;-75
2021/08/03 06:38:51;;;;;;;;;;;17.50;99.90;;;;;;8266456;28;19928;-75
2021/08/03 06:42:51;;;;;;;;;;;18.10;99.90;;;;;;8273791;28;19952;-66
2021/08/03 06:46:53;;;;;;;;;;;18.30;99.90;;;;;;8281548;28;19945;-66
2021/08/03 06:50:59;;;;;;;;;;;18.70;99.90;;;;;;8277289;28;19940;-65
2021/08/03 06:55:03;;;;;;;;;;;18.80;99.90;;;;;;8265912;28;19916;-66
2021/08/03 06:59:04;;;;;;;;;;;18.60;99.90;;;;;;8281655;28;20430;-65
2021/08/03 07:03:09;;;;;;;;;;;18.60;99.90;;;;;;8276121;28;19931;-67
2021/08/03 07:07:10;;;;;;;;;;;18.40;99.90;;;;;;8257314;28;19955;-66
2021/08/03 07:11:12;;;;;;;;;;;19.10;99.90;;;;;;8273177;28;19916;-65
2021/08/03 07:15:13;;;;;;;;;;;19.30;99.90;;;;;;8276201;28;20028;-65
2021/08/03 07:19:17;;;;;;;;;;;19.30;99.90;;;;;;8278093;28;19918;-65
2021/08/03 07:23:19;;;;;;;;;;;19.60;99.90;;;;;;8282283;28;20136;-65
2021/08/03 07:27:20;;;;;;;;;;;19.70;99.90;;;;;;8261155;28;19910;-66
2021/08/03 07:31:20;;;;;;;;;;;19.80;99.90;;;;;;8261133;28;20356;-66
2021/08/03 07:35:21;;;;;;;;;;;19.80;99.90;;;;;;8260454;28;19905;-65
2021/08/03 07:39:21;;;;;;;;;;;19.70;99.90;;;;;;8282578;28;20308;-65
2021/08/03 07:43:22;;;;;;;;;;;19.70;99.90;;;;;;8292699;28;19906;-66
2021/08/03 07:47:22;;;;;;;;;;;19.60;99.90;;;;;;8292871;28;20346;-65
2021/08/03 07:51:24;;;;;;;;;;;19.80;99.90;;;;;;8284586;28;20011;-65
2021/08/03 07:55:24;;;;;;;;;;;20.20;99.90;;;;;;8269842;28;19960;-66
2021/08/03 07:59:25;;;;;;;;;;;20.90;99.90;;;;;;8283428;28;20400;-65
2021/08/03 08:03:26;;;;;;;;;;;21.00;99.90;;;;;;8263855;28;19922;-65
2021/08/03 08:07:27;;;;;;;;;;;20.90;99.90;;;;;;8275841;28;20380;-66
2021/08/03 08:11:28;;;;;;;;;;;20.80;99.90;;;;;;8275855;28;20000;-66
2021/08/03 08:15:28;;;;;;;;;;;20.80;99.90;;;;;;8278310;28;19925;-65
2021/08/03 08:19:29;;;;;;;;;;;20.90;99.90;;;;;;8257995;28;19987;-66
2021/08/03 08:23:30;;;;;;;;;;;21.00;99.90;;;;;;8290806;28;19905;-66
2021/08/03 08:27:30;;;;;;;;;;;20.80;99.90;;;;;;8260095;28;19906;-65
2021/08/03 08:31:31;;;;;;;;;;;20.60;99.90;;;;;;8259109;28;20840;-67
2021/08/03 08:35:32;;;;;;;;;;;20.70;99.90;;;;;;8242613;28;19953;-65
2021/08/03 08:39:32;;;;;;;;;;;21.00;99.90;;;;;;8260419;28;20296;-66
2021/08/03 08:43:33;;;;;;;;;;;21.10;99.90;;;;;;8259497;28;20000;-65
2021/08/03 08:47:35;;;;;;;;;;;21.20;99.90;;;;;;8262590;28;19909;-66
2021/08/03 08:51:36;;;;;;;;;;;21.30;99.90;;;;;;8279631;28;19909;-65
2021/08/03 08:55:37;;;;;;;;;;;21.40;99.90;;;;;;8297667;28;19925;-65
2021/08/03 08:59:38;;;;;;;;;;;21.10;99.90;;;;;;8297967;28;19917;-65
2021/08/03 09:03:38;;;;;;;;;;;21.00;99.90;;;;;;8298083;28;19909;-65
2021/08/03 09:07:46;;;;;;;;;;;20.90;99.90;;;;;;8280162;28;19944;-66
2021/08/03 09:11:47;;;;;;;;;;;20.60;99.90;;;;;;8297533;28;20315;-66
2021/08/03 09:15:57;;;;;;;;;;;20.70;99.90;;;;;;8279261;28;19949;-65
2021/08/03 09:19:58;;;;;;;;;;;21.10;99.90;;;;;;8265753;28;20044;-66
2021/08/03 09:24:03;;;;;;;;;;;21.30;99.90;;;;;;8296615;28;20269;-66
2021/08/03 09:28:07;;;;;;;;;;;22.00;99.90;;;;;;8256022;28;19936;-66
2021/08/03 09:32:07;;;;;;;;;;;22.00;99.90;;;;;;8266991;28;19916;-66
2021/08/03 09:36:08;;;;;;;;;;;22.10;99.90;;;;;;8280165;28;19969;-66
2021/08/03 09:40:18;;;;;;;;;;;22.30;99.90;;;;;;8279996;28;19909;-66
2021/08/03 09:44:19;;;;;;;;;;;22.60;99.90;;;;;;8279805;28;20291;-66
2021/08/03 09:48:21;;;;;;;;;;;22.80;99.90;;;;;;8284820;28;19966;-66
2021/08/03 09:52:23;;;;;;;;;;;22.90;99.90;;;;;;8282583;28;19992;-66
2021/08/03 09:56:26;;;;;;;;;;;23.40;99.90;;;;;;8273819;28;19917;-65
2021/08/03 10:00:34;;;;;;;;;;;23.90;99.90;;;;;;8272769;28;19968;-65
2021/08/03 10:04:34;;;;;;;;;;;23.60;99.90;;;;;;8275691;28;20295;-65
2021/08/03 10:08:36;;;;;;;;;;;23.60;99.90;;;;;;8293695;28;19911;-65
2021/08/03 10:12:38;;;;;;;;;;;24.30;99.90;;;;;;8276070;28;20466;-65
2021/08/03 10:16:38;;;;;;;;;;;23.90;99.90;;;;;;8262798;28;20017;-65
2021/08/03 10:20:42;;;;;;;;;;;23.80;99.90;;;;;;8266244;28;20012;-65
2021/08/03 10:24:51;;;;;;;;;;;23.60;99.90;;;;;;8277164;28;19987;-66
2021/08/03 10:29:10;;;;;;;;;;;23.70;99.90;;;;;;8294851;28;19991;-65
2021/08/03 10:33:30;;;;;;;;;;;23.70;99.90;;;;;;8294594;28;19912;-65
2021/08/03 10:37:51;;;;;;;;;;;23.80;99.90;;;;;;8277700;28;20291;-65
2021/08/03 10:41:58;;;;;;;;;;;23.40;99.90;;;;;;8294442;28;19952;-65
2021/08/03 10:46:07;;;;;;;;;;;22.90;99.90;;;;;;8295040;28;20008;-65
2021/08/03 10:50:12;;;;;;;;;;;22.70;99.90;;;;;;8277108;28;20368;-65
2021/08/03 10:54:13;;;;;;;;;;;22.90;99.90;;;;;;8294958;28;19952;-65
2021/08/03 10:58:16;;;;;;;;;;;23.20;99.90;;;;;;8294904;28;19924;-65
2021/08/03 11:02:22;;;;;;;;;;;23.40;99.90;;;;;;8277045;28;19916;-65
2021/08/03 11:06:23;;;;;;;;;;;23.70;99.90;;;;;;8291258;28;19913;-65
2021/08/03 11:10:25;;;;;;;;;;;24.00;99.90;;;;;;8292264;28;19910;-66
2021/08/03 11:14:27;;;;;;;;;;;23.90;99.90;;;;;;8276423;28;20303;-65
2021/08/03 11:18:38;;;;;;;;;;;23.70;99.90;;;;;;8294287;28;20427;-65
2021/08/03 11:22:51;;;;;;;;;;;23.60;99.90;;;;;;8273496;28;19913;-65
2021/08/03 11:26:53;;;;;;;;;;;23.80;99.90;;;;;;8278658;28;19980;-66
2021/08/03 11:30:54;;;;;;;;;;;23.10;99.90;;;;;;8279393;28;19936;-66
2021/08/03 11:34:55;;;;;;;;;;;22.20;99.90;;;;;;8278076;28;19960;-66
2021/08/03 11:38:56;;;;;;;;;;;21.80;99.90;;;;;;8293070;28;19986;-66
2021/08/03 11:42:57;;;;;;;;;;;22.70;99.90;;;;;;8293792;28;20011;-66
2021/08/03 11:47:02;;;;;;;;;;;23.50;99.90;;;;;;8291821;28;19910;-67
2021/08/03 11:51:13;;;;;;;;;;;25.30;99.90;;;;;;8252504;28;20552;-67
2021/08/03 11:55:14;;;;;;;;;;;28.30;99.90;;;;;;8293201;28;19996;-67
2021/08/03 11:59:15;;;;;;;;;;;29.40;99.90;;;;;;8274801;28;20269;-67
2021/08/03 12:03:26;;;;;;;;;;;30.60;92.30;;;;;;8284026;28;19909;-67
2021/08/03 12:07:27;;;;;;;;;;;30.00;93.40;;;;;;8258739;28;19906;-66
2021/08/03 12:11:29;;;;;;;;;;;27.50;94.10;;;;;;8272907;28;20387;-67
2021/08/03 12:15:30;;;;;;;;;;;26.60;99.90;;;;;;8276103;28;19906;-67
2021/08/03 12:19:35;;;;;;;;;;;29.20;95.50;;;;;;8274397;28;20314;-67
2021/08/03 12:23:36;;;;;;;;;;;27.50;97.20;;;;;;8286314;28;19910;-66
2021/08/03 12:27:41;;;;;;;;;;;27.20;96.80;;;;;;8281958;28;19917;-68
2021/08/03 12:31:41;;;;;;;;;;;26.20;96.40;;;;;;8263558;28;19965;-66
2021/08/03 12:35:58;;;;;;;;;;;23.90;99.90;;;;;;8266806;28;19995;-66
2021/08/03 12:39:59;;;;;;;;;;;23.10;99.90;;;;;;8283996;28;19917;-66
2021/08/03 12:44:00;;;;;;;;;;;22.40;99.90;;;;;;8281622;28;19917;-66
2021/08/03 12:48:02;;;;;;;;;;;23.20;99.90;;;;;;8281234;28;20008;-66
2021/08/03 12:52:13;;;;;;;;;;;24.10;99.90;;;;;;8283790;28;19947;-66
2021/08/03 12:56:26;;;;;;;;;;;23.90;99.90;;;;;;8281634;28;19909;-67
2021/08/03 13:00:30;;;;;;;;;;;24.10;99.90;;;;;;8264101;28;19961;-66
2021/08/03 13:04:31;;;;;;;;;;;24.40;99.90;;;;;;8286787;28;19909;-66
2021/08/03 13:08:31;;;;;;;;;;;24.50;99.90;;;;;;8264372;28;19931;-66
2021/08/03 13:12:32;;;;;;;;;;;23.90;99.90;;;;;;8284292;28;19917;-66
2021/08/03 13:16:32;;;;;;;;;;;23.70;99.90;;;;;;8289690;28;19909;-66
2021/08/03 13:20:33;;;;;;;;;;;23.60;99.90;;;;;;8301156;28;19919;-66
2021/08/03 13:24:34;;;;;;;;;;;22.70;99.90;;;;;;8293403;28;19913;-66
2021/08/03 13:28:36;;;;;;;;;;;21.20;99.90;;;;;;8296883;28;19971;-66
2021/08/03 13:32:37;;;;;;;;;;;20.40;99.90;;;;;;8264972;28;19920;-65
2021/08/03 13:36:38;;;;;;;;;;;19.80;99.90;;;;;;8287321;28;20364;-64
2021/08/03 13:40:38;;;;;;;;;;;18.80;99.90;;;;;;8283572;28;19918;-64
2021/08/03 13:44:39;;;;;;;;;;;18.00;99.90;;;;;;8258175;28;19933;-64
2021/08/03 13:48:39;;;;;;;;;;;17.40;99.90;;;;;;8274269;28;19910;-64
2021/08/03 13:52:39;;;;;;;;;;;17.30;99.90;;;;;;8274980;28;19916;-64
2021/08/03 13:56:40;;;;;;;;;;;17.20;99.90;;;;;;8278178;28;19951;-65
2021/08/03 14:00:41;;;;;;;;;;;17.40;99.90;;;;;;8263550;28;19917;-65
2021/08/03 14:04:41;;;;;;;;;;;18.40;99.90;;;;;;8287620;28;20362;-67
2021/08/03 14:08:42;;;;;;;;;;;20.10;99.90;;;;;;8288596;28;19909;-65
2021/08/03 14:12:42;;;;;;;;;;;20.40;99.90;;;;;;8278212;28;19912;-65
2021/08/03 14:16:43;;;;;;;;;;;20.10;99.90;;;;;;8273444;28;19932;-65
2021/08/03 14:20:44;;;;;;;;;;;19.70;99.90;;;;;;8272773;28;19918;-65
2021/08/03 14:24:44;;;;;;;;;;;19.70;99.90;;;;;;8277930;28;19917;-65
2021/08/03 14:28:45;;;;;;;;;;;19.80;99.90;;;;;;8276770;28;19909;-65
2021/08/03 14:32:45;;;;;;;;;;;19.80;99.90;;;;;;8282869;28;19909;-66
2021/08/03 14:36:46;;;;;;;;;;;19.80;99.90;;;;;;8258375;28;19992;-66
2021/08/03 14:40:46;;;;;;;;;;;19.70;99.90;;;;;;8272115;28;19920;-65
2021/08/03 14:44:47;;;;;;;;;;;19.40;99.90;;;;;;8259067;28;19917;-65
2021/08/03 14:48:47;;;;;;;;;;;19.40;99.90;;;;;;8279363;28;19910;-66
2021/08/03 14:52:48;;;;;;;;;;;19.30;99.90;;;;;;8261338;28;19909;-66
2021/08/03 14:56:49;;;;;;;;;;;19.50;99.90;;;;;;8275136;28;19917;-66
2021/08/03 15:00:49;;;;;;;;;;;19.70;99.90;;;;;;8269378;28;19940;-66
2021/08/03 15:04:50;;;;;;;;;;;19.70;99.90;;;;;;8281784;28;19913;-65
2021/08/03 15:08:50;;;;;;;;;;;19.80;99.90;;;;;;8286056;28;19909;-66
2021/08/03 15:12:51;;;;;;;;;;;19.70;99.90;;;;;;8290456;28;20387;-66
2021/08/03 15:16:51;;;;;;;;;;;19.60;99.90;;;;;;8282826;28;20322;-66
2021/08/03 15:20:52;;;;;;;;;;;19.40;99.90;;;;;;8285994;28;19921;-66
2021/08/03 15:24:53;;;;;;;;;;;19.20;99.90;;;;;;8291454;28;20395;-66
2021/08/03 15:28:53;;;;;;;;;;;18.70;99.90;;;;;;8293523;28;19972;-66
2021/08/03 15:32:54;;;;;;;;;;;18.20;99.90;;;;;;8265473;28;19959;-66
2021/08/03 15:36:55;;;;;;;;;;;17.90;99.90;;;;;;8288641;28;19909;-66
2021/08/03 15:40:55;;;;;;;;;;;17.80;99.90;;;;;;8288691;28;19913;-66
2021/08/03 15:44:56;;;;;;;;;;;17.90;99.90;;;;;;8291434;28;19910;-66
2021/08/03 15:48:56;;;;;;;;;;;17.90;99.90;;;;;;8289853;28;19917;-66
2021/08/03 15:52:57;;;;;;;;;;;17.90;99.90;;;;;;8288825;28;19916;-66
2021/08/03 15:56:57;;;;;;;;;;;18.10;99.90;;;;;;8290431;28;19910;-66
2021/08/03 16:00:58;;;;;;;;;;;18.40;99.90;;;;;;8286560;28;19921;-66
2021/08/03 16:04:58;;;;;;;;;;;18.50;99.90;;;;;;8269775;28;19906;-66
2021/08/03 16:08:59;;;;;;;;;;;18.30;99.90;;;;;;8271523;28;21353;-65
2021/08/03 16:13:00;;;;;;;;;;;18.30;99.90;;;;;;8274044;28;19910;-65
2021/08/03 16:17:02;;;;;;;;;;;18.20;99.90;;;;;;8286569;28;20453;-66
2021/08/03 16:21:03;;;;;;;;;;;18.10;99.90;;;;;;8268796;28;19916;-66
2021/08/03 16:25:04;;;;;;;;;;;18.10;99.90;;;;;;8287830;28;19913;-65
2021/08/03 16:29:04;;;;;;;;;;;18.20;99.90;;;;;;8280255;28;19963;-65
2021/08/03 16:33:06;;;;;;;;;;;18.20;99.90;;;;;;8287157;28;19924;-65
2021/08/03 16:37:08;;;;;;;;;;;18.00;99.90;;;;;;8290189;28;19920;-64
2021/08/03 16:41:10;;;;;;;;;;;17.90;99.90;;;;;;8285229;28;19917;-65
2021/08/03 16:45:10;;;;;;;;;;;17.60;99.90;;;;;;8276711;28;19952;-65
2021/08/03 16:49:11;;;;;;;;;;;17.50;99.90;;;;;;8260206;28;19909;-65
2021/08/03 16:53:11;;;;;;;;;;;17.50;99.90;;;;;;8266859;28;19923;-65
2021/08/03 16:57:12;;;;;;;;;;;17.30;99.90;;;;;;8258888;28;19918;-65
2021/08/03 17:01:14;;;;;;;;;;;17.30;99.90;;;;;;8264139;28;20372;-66
2021/08/03 17:05:26;;;;;;;;;;;17.20;99.90;;;;;;8258819;28;20374;-65
2021/08/03 17:09:32;;;;;;;;;;;17.10;99.90;;;;;;8268702;28;19921;-65
2021/08/03 17:13:45;;;;;;;;;;;17.00;99.90;;;;;;8263596;28;20372;-65
2021/08/03 17:18:02;;;;;;;;;;;16.90;99.90;;;;;;8280864;28;19957;-64
2021/08/03 17:22:07;;;;;;;;;;;16.80;99.90;;;;;;8282979;28;20363;-66
2021/08/03 17:26:08;;;;;;;;;;;16.80;99.90;;;;;;8269797;28;19912;-65
2021/08/03 17:30:10;;;;;;;;;;;16.70;99.90;;;;;;8280223;28;19910;-65
2021/08/03 17:34:11;;;;;;;;;;;16.80;99.90;;;;;;8265202;28;19956;-65
2021/08/03 17:38:11;;;;;;;;;;;16.80;99.90;;;;;;8296603;28;19905;-65
2021/08/03 17:42:12;;;;;;;;;;;16.70;99.90;;;;;;8292536;28;19920;-65
2021/08/03 17:46:12;;;;;;;;;;;16.70;99.90;;;;;;8278011;28;19913;-64
2021/08/03 17:50:13;;;;;;;;;;;16.60;99.90;;;;;;8288833;28;20371;-65
2021/08/03 17:54:14;;;;;;;;;;;16.60;99.90;;;;;;8293926;28;20331;-65
2021/08/03 17:58:15;;;;;;;;;;;16.50;99.90;;;;;;8295566;28;19917;-65
2021/08/03 18:02:17;;;;;;;;;;;16.50;99.90;;;;;;8274679;28;19913;-66
2021/08/03 18:06:18;;;;;;;;;;;16.40;99.90;;;;;;8274741;28;19906;-64
2021/08/03 18:10:20;;;;;;;;;;;16.30;99.90;;;;;;8266362;28;19940;-65
2021/08/03 18:14:21;;;;;;;;;;;16.30;99.90;;;;;;8280417;28;20004;-65
2021/08/03 18:18:26;;;;;;;;;;;16.20;99.90;;;;;;8276234;28;19909;-64
2021/08/03 18:22:27;;;;;;;;;;;16.20;99.90;;;;;;8279023;28;20335;-64
2021/08/03 18:26:28;;;;;;;;;;;16.10;99.90;;;;;;8291051;28;19912;-64
2021/08/03 18:30:30;;;;;;;;;;;16.00;99.90;;;;;;8289276;28;19952;-64
2021/08/03 18:34:39;;;;;;;;;;;16.00;99.90;;;;;;8280543;28;19913;-66
2021/08/03 18:38:43;;;;;;;;;;;16.00;99.90;;;;;;8283793;28;19909;-64
2021/08/03 18:42:46;;;;;;;;;;;15.90;99.90;;;;;;8279524;28;19913;-65
2021/08/03 18:46:47;;;;;;;;;;;15.80;99.90;;;;;;8289837;28;19909;-67
2021/08/03 18:50:48;;;;;;;;;;;15.70;99.90;;;;;;8273788;28;19916;-65
2021/08/03 18:54:50;;;;;;;;;;;15.70;99.90;;;;;;8262984;28;19913;-67
2021/08/03 18:58:51;;;;;;;;;;;15.70;99.90;;;;;;8261808;28;20523;-65
2021/08/03 19:02:53;;;;;;;;;;;15.70;99.90;;;;;;8278963;28;20014;-66
2021/08/03 19:07:40;;;;;;;;;;;15.70;99.90;;;;;;8276509;28;19909;-65
2021/08/03 19:11:23;;;;;;;;;;;15.60;99.90;;;;;;8268633;28;19968;-65
2021/08/03 19:15:23;;;;;;;;;;;15.50;99.90;;;;;;8263670;28;19913;-65
2021/08/03 19:19:27;;;;;;;;;;;15.40;99.90;;;;;;8267380;28;19939;-65
2021/08/03 19:23:29;;;;;;;;;;;15.40;99.90;;;;;;8251139;28;19960;-65
2021/08/03 19:27:32;;;;;;;;;;;15.40;99.90;;;;;;8264727;28;19909;-65
2021/08/03 19:31:33;;;;;;;;;;;15.40;99.90;;;;;;8284504;28;20024;-65
2021/08/03 19:35:34;;;;;;;;;;;15.30;99.90;;;;;;8272450;28;19913;-65
2021/08/03 19:39:36;;;;;;;;;;;15.30;99.90;;;;;;8276943;28;20380;-65
2021/08/03 19:43:36;;;;;;;;;;;15.30;99.90;;;;;;8276969;28;19980;-65
2021/08/03 19:47:47;;;;;;;;;;;15.20;99.90;;;;;;8273758;28;20011;-65
2021/08/03 19:51:52;;;;;;;;;;;15.20;99.90;;;;;;8268378;28;19914;-65
2021/08/03 19:55:53;;;;;;;;;;;15.20;99.90;;;;;;8275367;28;19910;-65
2021/08/03 19:59:55;;;;;;;;;;;15.10;99.90;;;;;;8266680;28;19920;-65
2021/08/03 20:03:56;;;;;;;;;;;15.00;99.90;;;;;;8266556;28;19909;-65
2021/08/03 20:07:56;;;;;;;;;;;15.00;99.90;;;;;;8269527;28;19909;-65
2021/08/03 20:11:57;;;;;;;;;;;15.00;99.90;;;;;;8280917;28;19913;-65
2021/08/03 20:15:58;;;;;;;;;;;14.90;99.90;;;;;;8270834;28;19909;-65
2021/08/03 20:19:59;;;;;;;;;;;14.90;99.90;;;;;;8272270;28;19913;-65
2021/08/03 20:24:00;;;;;;;;;;;14.80;99.90;;;;;;8260788;28;19913;-65
2021/08/03 20:28:02;;;;;;;;;;;14.80;99.90;;;;;;8273798;28;19910;-65
2021/08/03 20:32:06;;;;;;;;;;;14.80;99.90;;;;;;8276505;28;19945;-65
2021/08/03 20:36:07;;;;;;;;;;;14.80;99.90;;;;;;8284680;28;20000;-65
2021/08/03 20:40:08;;;;;;;;;;;14.80;99.90;;;;;;8290515;28;19916;-65
2021/08/03 20:44:08;;;;;;;;;;;14.80;99.90;;;;;;8296572;28;20288;-64
2021/08/03 20:48:09;;;;;;;;;;;14.80;99.90;;;;;;8296732;28;19912;-65
2021/08/03 20:52:10;;;;;;;;;;;14.80;99.90;;;;;;8267696;28;19910;-65
2021/08/03 20:56:11;;;;;;;;;;;14.90;99.90;;;;;;8281885;28;20287;-65
2021/08/03 21:00:11;;;;;;;;;;;14.90;99.90;;;;;;8280786;28;20368;-65
2021/08/03 21:04:14;;;;;;;;;;;14.90;99.90;;;;;;8280673;28;20380;-65
2021/08/03 21:08:15;;;;;;;;;;;14.90;99.90;;;;;;8280532;28;19916;-65
2021/08/03 21:12:15;;;;;;;;;;;14.90;99.90;;;;;;8280999;28;20391;-65
2021/08/03 21:16:16;;;;;;;;;;;14.90;99.90;;;;;;8275731;28;20366;-65
2021/08/03 21:20:16;;;;;;;;;;;14.80;99.90;;;;;;8295252;28;19913;-65
2021/08/03 21:24:17;;;;;;;;;;;14.80;99.90;;;;;;8297729;28;19905;-65
2021/08/03 21:28:17;;;;;;;;;;;14.80;99.90;;;;;;8280017;28;19905;-65
2021/08/03 21:32:18;;;;;;;;;;;14.80;99.90;;;;;;8297181;28;19906;-64
2021/08/03 21:36:18;;;;;;;;;;;14.80;99.90;;;;;;8297022;28;19912;-65
2021/08/03 21:40:19;;;;;;;;;;;14.90;99.90;;;;;;8296339;28;19909;-64
2021/08/03 21:44:19;;;;;;;;;;;14.90;99.90;;;;;;8279486;28;20388;-64
2021/08/03 21:48:20;;;;;;;;;;;14.80;99.90;;;;;;8296800;28;19959;-64
2021/08/03 21:52:20;;;;;;;;;;;14.70;99.90;;;;;;8296041;28;20372;-64
2021/08/03 21:56:21;;;;;;;;;;;14.70;99.90;;;;;;8295779;28;19999;-64
2021/08/03 22:00:21;;;;;;;;;;;14.70;99.90;;;;;;8278426;28;19913;-64
2021/08/03 22:04:22;;;;;;;;;;;14.70;99.90;;;;;;8278663;28;19960;-64
2021/08/03 22:08:22;;;;;;;;;;;14.70;99.90;;;;;;8296708;28;19913;-64
2021/08/03 22:12:23;;;;;;;;;;;14.70;99.90;;;;;;8295520;28;19928;-64
2021/08/03 22:16:23;;;;;;;;;;;14.70;99.90;;;;;;8295634;28;19905;-64
2021/08/03 22:20:24;;;;;;;;;;;14.60;99.90;;;;;;8295462;28;20341;-64
2021/08/03 22:24:24;;;;;;;;;;;14.60;99.90;;;;;;8295635;28;19909;-64
2021/08/03 22:28:25;;;;;;;;;;;14.60;99.90;;;;;;8295397;28;19912;-64
2021/08/03 22:32:25;;;;;;;;;;;14.70;99.90;;;;;;8277508;28;20406;-64
2021/08/03 22:36:26;;;;;;;;;;;14.60;99.90;;;;;;8295145;28;19917;-64
2021/08/03 22:40:26;;;;;;;;;;;14.50;99.90;;;;;;8294261;28;19909;-64
2021/08/03 22:44:27;;;;;;;;;;;14.40;99.90;;;;;;8295219;28;19906;-64
2021/08/03 22:48:28;;;;;;;;;;;14.40;99.90;;;;;;8294965;28;19906;-64
2021/08/03 22:52:28;;;;;;;;;;;14.40;99.90;;;;;;8295576;28;19959;-64
2021/08/03 22:56:28;;;;;;;;;;;14.40;99.90;;;;;;8293581;28;19960;-64
2021/08/03 23:00:29;;;;;;;;;;;14.30;99.90;;;;;;8244330;28;19916;-64
2021/08/03 23:04:30;;;;;;;;;;;14.40;99.90;;;;;;8243980;28;19905;-64
2021/08/03 23:08:30;;;;;;;;;;;14.20;99.90;;;;;;8262003;28;19906;-64
2021/08/03 23:12:31;;;;;;;;;;;14.20;99.90;;;;;;8244146;28;19906;-64
2021/08/03 23:16:31;;;;;;;;;;;14.30;99.90;;;;;;8261577;28;19960;-64
2021/08/03 23:20:32;;;;;;;;;;;14.30;99.90;;;;;;8266127;28;19916;-64
2021/08/03 23:24:32;;;;;;;;;;;14.20;99.90;;;;;;8294052;28;19905;-64
2021/08/03 23:28:33;;;;;;;;;;;14.20;99.90;;;;;;8276239;28;20007;-64